Latest Weather Observations for Thredbo Top Station

IDN60801

Issued at 8:35 pm EST Wednesday 30 July 2014 (issued every 30 minutes, with the page automatically refreshed every 10 minutes)

About weather observations | Map of weather stations | Latest weather observations for NSW | Other Formats
Station Details ID: 071032 Name: THREDBO AWS Lat: -36.49 Lon: 148.29 Height: 1957.0 m
Data from the previous 72 hours. | See also: Recent months at Thredbo Top Station
Date/Time
EST
Temp
°C
App
Temp
°C
Dew
Point
Rel
Hum
%
Delta-T
°C
Wind Press
QNH
hPa
Press
MSL
hPa
Rain
since 9 am
mm
Dir
 
Spd
km/h
Gust
km/h
Spd
kts
Gust
kts
30/08:30pm 1.1 -16.3 1.0 99 0.0 W 82 109 44 59 1014.8 - 10.8
30/08:16pm 1.1 -15.9 1.0 99 0.0 W 80 117 43 63 1014.7 - 10.8
30/08:00pm 1.0 -15.3 0.9 99 0.0 W 76 98 41 53 1014.8 1019.6 10.8
30/07:30pm 1.1 -16.5 1.0 99 0.0 W 83 111 45 60 1014.7 - 10.8
30/07:00pm 1.1 -15.9 1.0 99 0.0 W 80 113 43 61 1014.8 1019.6 10.6
30/06:47pm 1.3 -15.7 1.2 99 0.0 W 80 115 43 62 1014.6 - 10.4
30/06:30pm 0.9 -14.6 0.8 99 0.0 W 72 96 39 52 1014.2 - 9.8
30/06:00pm 0.9 -15.0 0.8 99 0.0 W 74 113 40 61 1014.6 1019.4 9.4
30/05:30pm 1.1 -15.9 1.0 99 0.0 W 80 109 43 59 1014.2 - 9.4
30/05:00pm 1.2 -16.4 1.1 99 0.0 W 83 111 45 60 1014.0 1018.8 9.2
30/04:30pm 1.4 -14.1 1.3 99 0.0 W 72 102 39 55 1013.6 - 8.4
30/04:00pm 1.4 -14.8 1.3 99 0.0 W 76 100 41 54 1013.4 1018.2 8.0
30/03:30pm 1.3 -13.8 1.2 99 0.0 W 70 104 38 56 1013.0 - 7.2
30/03:00pm 1.3 -14.9 1.2 99 0.0 W 76 107 41 58 1013.0 1017.7 6.6
30/02:30pm 1.5 -13.4 1.4 99 0.0 W 69 91 37 49 1012.7 - 6.0
30/02:00pm 1.2 -13.3 1.1 99 0.0 W 67 89 36 48 1012.7 1017.5 5.2
30/01:30pm 1.3 -13.6 1.2 99 0.0 W 69 91 37 49 1013.1 - 4.4
30/01:00pm 1.3 -12.5 1.2 99 0.0 W 63 89 34 48 1013.3 1018.1 3.6
30/12:30pm 1.3 -13.2 1.2 99 0.0 W 67 85 36 46 1013.9 - 2.8
30/12:00pm 1.4 -13.7 1.3 99 0.0 W 70 91 38 49 1013.8 1018.6 2.2
30/11:30am 1.3 -13.6 1.2 99 0.0 W 69 91 37 49 1014.1 - 1.8
30/11:00am 1.3 -13.6 1.2 99 0.0 W 69 89 37 48 1014.4 1019.3 1.4
30/10:30am 1.4 -13.5 1.3 99 0.0 W 69 91 37 49 1014.1 - 1.0
30/10:00am 1.3 -13.2 1.2 99 0.0 W 67 89 36 48 1014.2 1019.0 0.6
30/09:30am 1.4 -13.7 1.3 99 0.0 W 70 98 38 53 1014.1 - 0.2
30/09:00am 1.4 -13.5 1.3 99 0.0 W 69 89 37 48 1013.9 1018.7 13.2
30/08:30am 1.3 -13.2 1.2 99 0.0 W 67 87 36 47 1013.4 - 12.8
30/08:00am 1.3 -13.6 1.2 99 0.0 W 69 87 37 47 1013.2 1018.0 12.4
30/07:30am 1.2 -15.8 1.1 99 0.0 W 80 98 43 53 1013.1 - 12.2
30/07:06am 1.2 -15.8 1.1 99 0.0 W 80 100 43 54 1013.0 - 12.0
30/07:00am 1.2 -15.8 1.1 99 0.0 W 80 96 43 52 1013.1 1017.9 12.0
30/06:32am 1.1 -15.2 1.0 99 0.0 W 76 95 41 51 1012.8 - 11.6
30/06:30am 1.2 -15.4 1.1 99 0.0 W 78 95 42 51 1012.8 - 11.4
30/06:00am 1.4 -14.4 1.3 99 0.0 W 74 93 40 50 1012.6 1017.4 11.0
30/05:30am 1.3 -14.9 1.2 99 0.0 W 76 96 41 52 1012.5 - 10.8
30/05:04am 1.3 -13.6 1.2 99 0.0 W 69 87 37 47 1012.8 - 10.6
30/05:00am 1.1 -13.8 1.0 99 0.0 W 69 83 37 45 1012.7 1017.5 10.6
30/04:30am 1.3 -12.9 1.2 99 0.0 W 65 93 35 50 1013.0 - 10.4
30/04:00am 1.2 -12.6 1.1 99 0.0 W 63 83 34 45 1012.7 1017.5 10.0
30/03:30am 1.1 -13.5 1.0 99 0.0 W 67 91 36 49 1013.0 - 9.2
30/03:00am 0.9 -13.7 0.8 99 0.0 W 67 85 36 46 1013.2 1018.0 8.4
30/02:30am 1.0 -14.0 0.9 99 0.0 W 69 93 37 50 1013.6 - 7.4
30/02:00am 1.0 -13.6 0.9 99 0.0 W 67 93 36 50 1013.9 1018.7 6.4
30/01:30am 1.0 -12.1 0.9 99 0.0 W 59 80 32 43 1014.1 - 5.8
30/01:00am 0.8 -11.3 0.7 99 0.0 W 54 72 29 39 1013.9 1018.7 4.2
30/12:30am 0.9 -13.7 0.8 99 0.0 W 67 96 36 52 1014.0 - 3.2
30/12:19am 0.9 -12.6 0.8 99 0.0 W 61 80 33 43 1014.2 - 3.2
30/12:00am 0.7 -12.0 0.6 99 0.0 W 57 72 31 39 1014.3 1019.2 2.6
 
Date/Time
EST
Temp
°C
App
Temp
°C
Dew
Point
Rel
Hum
%
Delta-T
°C
Wind Press
QNH
hPa
Press
MSL
hPa
Rain
since 9 am
mm
Dir
 
Spd
km/h
Gust
km/h
Spd
kts
Gust
kts
29/11:30pm 0.6 -13.3 0.5 99 0.0 W 63 82 34 44 1014.4 - 2.4
29/11:20pm 0.4 -12.7 0.3 99 0.0 W 59 85 32 46 1014.3 - 2.2
29/11:00pm 0.2 -13.0 0.1 99 0.0 W 59 76 32 41 1014.4 1019.3 1.2
29/10:31pm 0.0 -13.2 -0.1 99 0.0 W 59 78 32 42 1014.8 - 0.2
29/10:30pm 0.0 -13.2 -0.1 99 0.0 W 59 76 32 41 1014.8 - 0.2
29/10:16pm 0.0 -15.1 -0.1 99 0.0 W 69 87 37 47 1014.6 - 0.0
29/10:00pm -0.1 -16.2 -0.2 99 0.0 W 74 91 40 49 1014.6 1019.4 0.0
29/09:49pm -0.2 -15.3 -0.3 99 0.0 W 69 87 37 47 1014.6 - 0.0
29/09:30pm -0.3 -15.6 -0.4 99 0.0 W 70 87 38 47 1014.6 - 0.0
29/09:03pm -0.4 -16.9 -0.5 99 0.0 W 76 95 41 51 1014.4 - 0.0
29/09:00pm -0.4 -17.3 -0.5 99 0.0 W 78 95 42 51 1014.4 1019.3 0.0
29/08:34pm -0.4 -17.7 -0.5 99 0.0 W 80 104 43 56 1014.7 - 0.0
29/08:30pm -0.4 -18.2 -0.5 99 0.0 WSW 83 98 45 53 1014.8 - 0.0
29/08:05pm -0.4 -17.7 -0.5 99 0.0 WSW 80 98 43 53 1015.1 - 0.0
29/08:00pm -0.5 -17.8 -0.6 99 0.0 W 80 96 43 52 1015.0 1019.9 0.0
29/07:30pm -0.5 -17.0 -0.6 99 0.0 W 76 95 41 51 1014.8 - 0.0
29/07:00pm -0.2 -15.9 -0.3 99 0.0 W 72 91 39 49 1015.1 1020.0 0.0
29/06:30pm -0.1 -16.6 -0.2 99 0.0 W 76 96 41 52 1014.4 - 0.0
29/06:02pm -0.2 -14.6 -0.3 99 0.0 W 65 83 35 45 1014.4 - 0.0
29/06:00pm -0.2 -15.0 -0.3 99 0.0 W 67 83 36 45 1014.3 1019.2 0.0
29/05:31pm -0.2 -15.0 -0.3 99 0.0 WSW 67 85 36 46 1014.3 - 0.0
29/05:30pm -0.2 -15.3 -0.3 99 0.0 WSW 69 85 37 46 1014.4 - 0.0
29/05:00pm -0.5 -15.7 -0.6 99 0.0 W 69 82 37 44 1013.8 1018.6 0.0
29/04:55pm -0.4 -15.2 -0.5 99 0.0 WSW 67 78 36 42 1013.6 - 0.0
29/04:46pm -0.5 -15.7 -0.6 99 0.0 WNW 69 82 37 44 1013.8 - 0.0
29/04:30pm -0.5 -15.3 -0.6 99 0.0 WSW 67 89 36 48 1013.9 - 0.0
29/04:00pm -0.7 -16.9 -0.8 99 0.0 WSW 74 100 40 54 1013.5 1018.3 0.0
29/03:30pm -0.8 -16.2 -1.1 98 0.1 WSW 70 89 38 48 1012.8 - 0.0
29/03:08pm -0.9 -17.1 -1.0 99 0.0 WSW 74 93 40 50 1013.3 - 0.0
29/03:00pm -0.9 -17.5 -1.2 98 0.1 WSW 76 93 41 50 1013.2 1018.0 0.0
29/02:30pm -0.8 -18.6 -1.4 96 0.2 WSW 82 100 44 54 1012.7 - 0.0
29/02:00pm -0.6 -19.0 -1.6 93 0.3 WSW 85 109 46 59 1012.7 1017.5 0.0
29/01:30pm -0.5 -17.9 -1.9 90 0.5 WSW 80 100 43 54 1013.0 - 0.0
29/01:00pm -0.7 -18.2 -2.7 86 0.7 WSW 80 100 43 54 1013.1 1017.9 0.0
29/12:32pm -0.9 -18.8 -2.6 88 0.6 WSW 82 100 44 54 1013.1 - 0.0
29/12:30pm -0.7 -18.8 -4.0 78 1.1 W 82 98 44 53 1013.1 - 0.0
29/12:05pm -1.1 -19.1 -1.5 97 0.1 WSW 83 102 45 55 1013.9 - 0.0
29/12:00pm -0.8 -19.1 -1.2 97 0.1 WSW 85 100 46 54 1014.2 1019.0 0.0
29/11:30am -0.9 -18.6 -1.0 99 0.0 WSW 82 100 44 54 1015.4 - 0.0
29/11:01am -0.7 -16.5 -0.8 99 0.0 WSW 72 91 39 49 1015.7 - 0.0
29/11:00am -1.0 -17.2 -1.1 99 0.0 WSW 74 91 40 49 1015.8 1020.7 0.0
29/10:30am -0.9 -13.9 -1.2 98 0.1 W 57 78 31 42 1015.9 - 0.0
29/10:23am -1.0 -13.4 -1.1 99 0.0 W 54 72 29 39 1016.2 - 0.0
29/10:00am -0.9 -12.5 -1.0 99 0.0 W 50 63 27 34 1016.3 1021.2 0.0
29/09:58am -0.7 -11.5 -0.8 99 0.0 W 46 54 25 29 1016.6 - 0.0
29/09:44am -0.6 -15.0 -0.7 99 0.0 W 65 83 35 45 1015.5 - 0.0
29/09:30am -0.6 -15.8 -0.7 99 0.0 W 69 85 37 46 1015.2 - 0.0
29/09:00am -0.1 -15.2 -0.2 99 0.0 W 69 87 37 47 1015.7 1020.6 0.0
29/08:30am 0.1 -15.6 -0.3 97 0.2 W 72 96 39 52 1015.9 - 0.0
29/08:03am 0.3 -15.4 -0.5 94 0.3 W 72 91 39 49 1015.7 - 0.0
29/08:00am 0.3 -15.4 -0.4 95 0.3 W 72 89 39 48 1015.8 1020.7 0.0
29/07:33am 0.5 -15.7 -0.8 91 0.5 W 74 93 40 50 1015.5 - 0.0
29/07:30am 0.5 -16.1 -0.9 90 0.6 W 76 93 41 50 1015.6 - 0.0
29/07:22am 0.3 -15.8 -0.7 93 0.4 W 74 93 40 50 1015.5 - 0.0
29/07:00am -0.1 -17.0 -0.8 95 0.3 W 78 95 42 51 1015.4 1020.2 0.0
29/06:50am 0.3 -15.8 -0.5 94 0.3 W 74 95 40 51 1015.5 - 0.0
29/06:30am 0.0 -16.1 -0.7 95 0.3 W 74 89 40 48 1015.2 - 0.0
29/06:12am -0.2 -15.6 -0.9 95 0.3 WSW 70 89 38 48 1015.1 - 0.0
29/06:00am -0.2 -15.6 -0.8 96 0.2 WSW 70 83 38 45 1015.0 1019.9 0.0
29/05:36am -0.2 -15.6 -0.8 96 0.2 WSW 70 89 38 48 1014.9 - 0.0
29/05:30am -0.1 -15.3 -0.8 95 0.3 WSW 69 82 37 44 1015.0 - 0.0
29/05:00am -0.1 -14.6 -0.9 94 0.3 WSW 65 80 35 43 1015.2 1020.1 0.0
29/04:30am -0.3 -14.4 -1.3 93 0.4 WSW 63 76 34 41 1015.6 - 0.0
29/04:09am -0.2 -14.0 -1.5 91 0.5 W 61 80 33 43 1015.6 - 0.0
29/04:00am -0.2 -14.0 -1.5 91 0.5 W 61 76 33 41 1015.6 1020.5 0.0
29/03:30am 0.1 -13.7 -1.5 89 0.6 W 61 74 33 40 1015.5 - 0.0
29/03:00am -0.2 -14.4 -1.5 91 0.5 W 63 78 34 42 1015.8 1020.7 0.0
29/02:30am 0.1 -14.4 -1.3 90 0.5 WSW 65 85 35 46 1015.8 - 0.0
29/02:17am 0.1 -14.0 -1.3 90 0.5 W 63 83 34 45 1016.0 - 0.0
29/02:00am 0.4 -13.7 -1.2 89 0.6 W 63 78 34 42 1016.0 1020.9 0.0
29/01:30am 0.0 -14.9 -1.6 89 0.6 W 67 80 36 43 1016.5 - 0.0
29/01:00am 0.1 -14.8 -1.0 92 0.4 W 67 82 36 44 1016.5 1021.4 0.0
29/12:31am -0.2 -16.4 -1.3 92 0.4 W 74 93 40 50 1016.6 - 0.0
29/12:30am -0.2 -16.8 -1.3 92 0.4 W 76 93 41 50 1016.6 - 0.0
29/12:16am -0.1 -17.9 -1.4 91 0.5 W 82 100 44 54 1016.7 - 0.0
29/12:00am 0.1 -16.5 -1.5 89 0.6 W 76 91 41 49 1016.6 1021.5 0.0
 
Date/Time
EST
Temp
°C
App
Temp
°C
Dew
Point
Rel
Hum
%
Delta-T
°C
Wind Press
QNH
hPa
Press
MSL
hPa
Rain
since 9 am
mm
Dir
 
Spd
km/h
Gust
km/h
Spd
kts
Gust
kts
28/11:30pm -0.1 -16.7 -0.9 94 0.3 W 76 95 41 51 1017.2 - 0.0
28/11:12pm -0.1 -15.9 -0.8 95 0.3 W 72 93 39 50 1017.3 - 0.0
28/11:00pm 0.0 -15.8 -1.0 93 0.4 WSW 72 85 39 46 1017.4 1022.4 0.0
28/10:30pm 0.2 -16.7 -0.8 93 0.4 WSW 78 89 42 48 1017.0 - 0.0
28/10:00pm -0.1 -16.2 -0.5 97 0.2 W 74 98 40 53 1017.1 1022.0 0.0
28/09:30pm -0.3 -17.6 -1.0 95 0.3 W 80 93 43 50 1017.0 - 0.0
28/09:00pm -0.5 -15.9 -1.1 96 0.2 WSW 70 85 38 46 1017.5 1022.5 0.0
28/08:32pm 0.2 -12.7 -0.9 92 0.4 W 57 76 31 41 1017.6 - 0.0
28/08:30pm 0.1 -12.8 -0.9 93 0.4 W 57 72 31 39 1017.5 - 0.0
28/08:25pm -0.1 -13.0 -0.8 95 0.3 W 57 76 31 41 1017.6 - 0.0
28/08:00pm -0.8 -14.9 -0.9 99 0.0 W 63 76 34 41 1018.0 1023.0 0.0
28/07:31pm -0.8 -16.1 -1.4 96 0.2 W 69 87 37 47 1017.8 - 0.0
28/07:30pm -0.7 -16.0 -1.4 95 0.2 W 69 82 37 44 1017.8 - 0.0
28/07:00pm -0.6 -15.9 -1.3 95 0.2 WSW 69 80 37 43 1017.5 1022.5 0.0
28/06:43pm -0.8 -14.9 -1.4 96 0.2 W 63 82 34 44 1017.4 - 0.0
28/06:30pm -0.5 -14.6 -1.3 94 0.3 W 63 76 34 41 1017.3 - 0.0
28/06:22pm -0.6 -14.3 -1.2 96 0.2 W 61 80 33 43 1017.2 - 0.0
28/06:00pm -0.6 -15.4 -0.9 98 0.1 W 67 80 36 43 1017.1 1022.0 0.0
28/05:33pm -0.7 -15.2 -1.0 98 0.1 W 65 85 35 46 1016.8 - 0.0
28/05:30pm -1.1 -15.6 -1.2 99 0.0 W 65 80 35 43 1016.6 - 0.0
28/05:00pm -0.9 -14.6 -1.2 98 0.1 W 61 76 33 41 1016.4 1021.3 0.0
28/04:40pm -0.9 -15.4 -1.3 97 0.1 W 65 85 35 46 1016.4 - 0.0
28/04:30pm -0.9 -16.4 -1.3 97 0.1 W 70 82 38 44 1016.4 - 0.0
28/04:00pm -0.9 -15.8 -1.3 97 0.1 W 67 80 36 43 1016.4 1021.3 0.0
28/03:30pm -1.2 -16.5 -1.3 99 0.0 W 69 87 37 47 1016.6 - 0.0
28/03:22pm -1.1 -15.3 -1.5 97 0.1 W 63 87 34 47 1016.5 - 0.0
28/03:00pm -0.9 -16.2 -1.6 95 0.2 W 69 82 37 44 1016.6 1021.5 0.0
28/02:30pm -0.9 -15.5 -1.9 93 0.3 W 65 76 35 41 1016.4 - 0.0
28/02:00pm -1.0 -16.3 -1.7 95 0.2 W 69 83 37 45 1016.5 1021.4 0.0
28/01:30pm -0.9 -15.4 -1.0 99 0.0 W 65 78 35 42 1016.4 - 0.0
28/01:00pm -1.0 -14.0 -1.1 99 0.0 W 57 72 31 39 1016.8 1021.8 0.0
28/12:30pm -1.0 -15.1 -1.1 99 0.0 W 63 78 34 42 1017.0 - 0.0
28/12:00pm -0.9 -14.2 -1.0 99 0.0 W 59 74 32 40 1017.6 1022.6 0.0
28/11:30am -0.9 -14.2 -1.0 99 0.0 W 59 74 32 40 1017.9 - 0.0
28/11:00am -1.0 -15.2 -1.6 96 0.2 W 63 78 34 42 1018.1 1023.1 0.0
28/10:30am -0.9 -15.5 -1.7 94 0.3 W 65 82 35 44 1018.2 - 0.0
28/10:20am -0.8 -15.5 -2.4 89 0.6 W 65 83 35 45 1018.0 - 0.0
28/10:00am -0.9 -15.5 -2.2 91 0.4 W 65 78 35 42 1018.0 1023.0 0.0
28/09:30am -1.1 -15.4 -2.2 92 0.4 W 63 74 34 40 1018.2 - 0.0
28/09:00am -1.2 -16.3 -2.8 89 0.5 W 67 78 36 42 1018.3 1023.3 1.0
28/08:30am -1.4 -14.4 -2.5 92 0.3 W 56 65 30 35 1018.6 - 1.0
28/08:22am -1.5 -14.1 -2.3 94 0.2 W 54 72 29 39 1018.7 - 1.0
28/08:00am -1.6 -15.9 -2.9 91 0.4 W 63 76 34 41 1018.7 1023.7 1.0
28/07:30am -1.9 -17.0 -3.3 90 0.4 W 67 78 36 42 1018.0 - 1.0
28/07:00am -1.9 -16.2 -2.3 97 0.1 W 63 74 34 40 1018.4 1023.4 1.0
28/06:30am -1.7 -17.1 -2.5 94 0.2 W 69 78 37 42 1018.1 - 1.0
28/06:00am -1.9 -15.8 -2.2 98 0.0 W 61 78 33 42 1018.6 1023.6 1.0
28/05:41am -1.9 -15.1 -2.5 96 0.1 W 57 78 31 42 1018.8 - 1.0
28/05:30am -2.1 -16.0 -2.5 97 0.0 W 61 76 33 41 1018.7 - 1.0
28/05:08am -2.1 -15.6 -2.5 97 0.0 W 59 78 32 42 1018.8 - 1.0
28/05:00am -2.2 -16.1 -2.7 96 0.1 W 61 76 33 41 1018.8 1023.8 1.0
28/04:30am -2.2 -15.8 -3.0 94 0.2 W 59 74 32 40 1018.0 - 1.0
28/04:00am -2.3 -15.3 -2.6 98 0.0 W 56 67 30 36 1018.0 1023.0 1.0
28/03:30am -2.3 -15.3 -2.7 97 0.0 W 56 76 30 41 1018.4 - 1.0
28/03:07am -2.4 -15.4 -3.1 95 0.1 W 56 74 30 40 1018.7 - 1.0
28/03:00am -2.4 -15.6 -2.8 97 0.0 W 57 74 31 40 1018.8 1023.8 1.0
28/02:36am -2.2 -15.4 -2.9 95 0.1 WSW 57 76 31 41 1019.0 - 1.0
28/02:30am -2.3 -15.5 -2.8 96 0.1 WSW 57 69 31 37 1019.1 - 1.0
28/02:00am -2.6 -16.2 -3.1 96 0.1 WSW 59 72 32 39 1019.6 1024.6 1.0
28/01:30am -2.9 -18.0 -3.2 98 0.0 WSW 67 76 36 41 1019.4 - 1.0
28/01:00am -3.1 -16.5 -5.1 86 0.5 WSW 57 69 31 37 1018.9 1023.9 1.0
28/12:30am -2.5 -16.1 -8.8 62 1.8 W 56 69 30 37 1018.9 - 1.0
28/12:00am -2.3 -15.5 -8.4 63 1.8 W 54 67 29 36 1019.1 1024.1 1.0
 
Date/Time
EST
Temp
°C
App
Temp
°C
Dew
Point
Rel
Hum
%
Delta-T
°C
Wind Press
QNH
hPa
Press
MSL
hPa
Rain
since 9 am
mm
Dir
 
Spd
km/h
Gust
km/h
Spd
kts
Gust
kts
27/11:30pm -1.8 -15.2 -10.6 51 2.5 W 54 67 29 36 1019.4 - 1.0
27/11:00pm -0.5 -13.9 -10.7 46 3.0 W 54 65 29 35 1019.9 1025.0 1.0
27/10:30pm -2.2 -15.0 -4.8 82 0.8 W 54 63 29 34 1020.7 - 1.0
27/10:00pm -1.7 -13.4 -4.9 79 1.0 W 48 57 26 31 1020.8 1025.9 1.0
27/09:30pm -1.5 -13.3 -5.3 75 1.2 W 48 56 26 30 1021.0 - 1.0
27/09:00pm -1.7 -13.9 -2.3 96 0.1 W 52 63 28 34 1021.5 1026.6 1.0

Other Formats:

Comma delimited format used in spreadsheet applications
http://www.bom.gov.au/fwo/IDN60801/IDN60801.95909.axf

JavaScript Object Notation format (JSON) in row-major order
http://www.bom.gov.au/fwo/IDN60801/IDN60801.95909.json